sensor_id;sensor_type;location;lat;lon;timestamp;P1;durP1;ratioP1;P2;durP2;ratioP2
76125;SDS011;65174;48.138;21.002;2023-07-08T00:00:10;3.10;;;2.10;;
76125;SDS011;65174;48.138;21.002;2023-07-08T00:03:14;2.80;;;1.90;;
76125;SDS011;65174;48.138;21.002;2023-07-08T00:06:20;3.67;;;2.22;;
76125;SDS011;65174;48.138;21.002;2023-07-08T00:09:24;3.33;;;2.08;;
76125;SDS011;65174;48.138;21.002;2023-07-08T00:12:26;2.73;;;1.73;;
76125;SDS011;65174;48.138;21.002;2023-07-08T00:15:28;3.95;;;2.10;;
76125;SDS011;65174;48.138;21.002;2023-07-08T00:18:33;4.90;;;2.22;;
76125;SDS011;65174;48.138;21.002;2023-07-08T00:21:35;4.30;;;2.53;;
76125;SDS011;65174;48.138;21.002;2023-07-08T00:24:37;3.13;;;2.17;;
76125;SDS011;65174;48.138;21.002;2023-07-08T00:27:39;4.20;;;1.77;;
76125;SDS011;65174;48.138;21.002;2023-07-08T00:30:41;3.35;;;2.17;;
76125;SDS011;65174;48.138;21.002;2023-07-08T00:33:43;6.07;;;1.90;;
76125;SDS011;65174;48.138;21.002;2023-07-08T00:36:46;4.03;;;2.10;;
76125;SDS011;65174;48.138;21.002;2023-07-08T00:39:48;4.00;;;1.83;;
76125;SDS011;65174;48.138;21.002;2023-07-08T00:42:50;3.63;;;2.17;;
76125;SDS011;65174;48.138;21.002;2023-07-08T00:45:53;7.03;;;2.25;;
76125;SDS011;65174;48.138;21.002;2023-07-08T00:52:25;3.67;;;2.40;;
76125;SDS011;65174;48.138;21.002;2023-07-08T00:55:29;6.57;;;2.28;;
76125;SDS011;65174;48.138;21.002;2023-07-08T00:58:33;3.30;;;2.30;;
76125;SDS011;65174;48.138;21.002;2023-07-08T01:05:05;3.05;;;1.88;;
76125;SDS011;65174;48.138;21.002;2023-07-08T01:08:12;2.83;;;1.58;;
76125;SDS011;65174;48.138;21.002;2023-07-08T01:11:14;2.08;;;1.58;;
76125;SDS011;65174;48.138;21.002;2023-07-08T01:14:17;2.13;;;1.53;;
76125;SDS011;65174;48.138;21.002;2023-07-08T01:17:22;4.10;;;1.52;;
76125;SDS011;65174;48.138;21.002;2023-07-08T01:20:25;3.67;;;1.73;;
76125;SDS011;65174;48.138;21.002;2023-07-08T01:23:27;3.47;;;1.65;;
76125;SDS011;65174;48.138;21.002;2023-07-08T01:26:29;2.97;;;1.77;;
76125;SDS011;65174;48.138;21.002;2023-07-08T01:29:33;4.67;;;1.50;;
76125;SDS011;65174;48.138;21.002;2023-07-08T01:32:39;2.10;;;1.50;;
76125;SDS011;65174;48.138;21.002;2023-07-08T01:35:45;4.75;;;2.20;;
76125;SDS011;65174;48.138;21.002;2023-07-08T01:38:51;2.30;;;1.33;;
76125;SDS011;65174;48.138;21.002;2023-07-08T01:41:53;3.05;;;1.80;;
76125;SDS011;65174;48.138;21.002;2023-07-08T01:44:57;6.93;;;2.90;;
76125;SDS011;65174;48.138;21.002;2023-07-08T01:51:08;3.95;;;2.20;;
76125;SDS011;65174;48.138;21.002;2023-07-08T01:54:10;2.70;;;1.85;;
76125;SDS011;65174;48.138;21.002;2023-07-08T01:57:12;1.65;;;1.40;;
76125;SDS011;65174;48.138;21.002;2023-07-08T02:04:05;2.60;;;1.67;;
76125;SDS011;65174;48.138;21.002;2023-07-08T02:07:07;1.63;;;1.33;;
76125;SDS011;65174;48.138;21.002;2023-07-08T02:10:09;2.40;;;1.40;;
76125;SDS011;65174;48.138;21.002;2023-07-08T02:13:11;3.05;;;1.85;;
76125;SDS011;65174;48.138;21.002;2023-07-08T02:16:13;3.10;;;1.80;;
76125;SDS011;65174;48.138;21.002;2023-07-08T02:19:15;2.65;;;1.80;;
76125;SDS011;65174;48.138;21.002;2023-07-08T02:22:17;3.22;;;1.58;;
76125;SDS011;65174;48.138;21.002;2023-07-08T02:25:19;1.75;;;1.58;;
76125;SDS011;65174;48.138;21.002;2023-07-08T02:28:21;2.50;;;1.60;;
76125;SDS011;65174;48.138;21.002;2023-07-08T02:31:24;6.10;;;2.50;;
76125;SDS011;65174;48.138;21.002;2023-07-08T02:34:26;3.08;;;1.50;;
76125;SDS011;65174;48.138;21.002;2023-07-08T02:37:29;4.18;;;2.42;;
76125;SDS011;65174;48.138;21.002;2023-07-08T02:40:31;4.22;;;1.98;;
76125;SDS011;65174;48.138;21.002;2023-07-08T02:43:33;3.38;;;2.10;;
76125;SDS011;65174;48.138;21.002;2023-07-08T02:46:35;4.90;;;2.20;;
76125;SDS011;65174;48.138;21.002;2023-07-08T02:49:37;2.90;;;1.92;;
76125;SDS011;65174;48.138;21.002;2023-07-08T02:52:39;2.97;;;1.95;;
76125;SDS011;65174;48.138;21.002;2023-07-08T02:55:41;2.47;;;2.03;;
76125;SDS011;65174;48.138;21.002;2023-07-08T02:58:44;3.88;;;2.10;;
76125;SDS011;65174;48.138;21.002;2023-07-08T03:01:46;2.23;;;1.80;;
76125;SDS011;65174;48.138;21.002;2023-07-08T03:04:48;5.00;;;1.60;;
76125;SDS011;65174;48.138;21.002;2023-07-08T03:07:51;4.60;;;2.55;;
76125;SDS011;65174;48.138;21.002;2023-07-08T03:10:55;2.33;;;1.75;;
76125;SDS011;65174;48.138;21.002;2023-07-08T03:13:59;1.50;;;1.40;;
76125;SDS011;65174;48.138;21.002;2023-07-08T03:17:01;3.57;;;2.00;;
76125;SDS011;65174;48.138;21.002;2023-07-08T03:20:04;2.45;;;1.75;;
76125;SDS011;65174;48.138;21.002;2023-07-08T03:23:09;2.67;;;2.10;;
76125;SDS011;65174;48.138;21.002;2023-07-08T03:26:12;2.50;;;1.85;;
76125;SDS011;65174;48.138;21.002;2023-07-08T03:29:19;1.65;;;1.48;;
76125;SDS011;65174;48.138;21.002;2023-07-08T03:32:22;2.60;;;1.50;;
76125;SDS011;65174;48.138;21.002;2023-07-08T03:35:24;3.53;;;1.92;;
76125;SDS011;65174;48.138;21.002;2023-07-08T03:38:26;8.02;;;2.25;;
76125;SDS011;65174;48.138;21.002;2023-07-08T03:41:28;2.30;;;1.65;;
76125;SDS011;65174;48.138;21.002;2023-07-08T03:44:30;2.63;;;1.95;;
76125;SDS011;65174;48.138;21.002;2023-07-08T03:47:33;6.00;;;2.13;;
76125;SDS011;65174;48.138;21.002;2023-07-08T03:50:35;2.75;;;2.00;;
76125;SDS011;65174;48.138;21.002;2023-07-08T03:53:37;2.10;;;1.67;;
76125;SDS011;65174;48.138;21.002;2023-07-08T03:56:40;2.45;;;1.65;;
76125;SDS011;65174;48.138;21.002;2023-07-08T03:59:43;5.05;;;2.33;;
76125;SDS011;65174;48.138;21.002;2023-07-08T04:02:46;5.27;;;2.07;;
76125;SDS011;65174;48.138;21.002;2023-07-08T04:05:54;2.10;;;1.65;;
76125;SDS011;65174;48.138;21.002;2023-07-08T04:08:56;2.92;;;1.85;;
76125;SDS011;65174;48.138;21.002;2023-07-08T04:11:57;3.38;;;1.70;;
76125;SDS011;65174;48.138;21.002;2023-07-08T04:15:01;3.42;;;2.03;;
76125;SDS011;65174;48.138;21.002;2023-07-08T04:18:03;2.87;;;2.07;;
76125;SDS011;65174;48.138;21.002;2023-07-08T04:21:05;2.72;;;1.80;;
76125;SDS011;65174;48.138;21.002;2023-07-08T04:24:11;2.28;;;1.70;;
76125;SDS011;65174;48.138;21.002;2023-07-08T04:27:15;1.85;;;1.48;;
76125;SDS011;65174;48.138;21.002;2023-07-08T04:30:21;2.45;;;1.70;;
76125;SDS011;65174;48.138;21.002;2023-07-08T04:33:25;2.37;;;1.60;;
76125;SDS011;65174;48.138;21.002;2023-07-08T04:36:27;2.65;;;1.75;;
76125;SDS011;65174;48.138;21.002;2023-07-08T04:42:59;4.22;;;1.63;;
76125;SDS011;65174;48.138;21.002;2023-07-08T04:46:01;4.32;;;1.45;;
76125;SDS011;65174;48.138;21.002;2023-07-08T04:49:04;3.50;;;1.63;;
76125;SDS011;65174;48.138;21.002;2023-07-08T04:52:06;2.78;;;1.80;;
76125;SDS011;65174;48.138;21.002;2023-07-08T04:55:08;2.70;;;1.58;;
76125;SDS011;65174;48.138;21.002;2023-07-08T04:58:11;1.83;;;1.60;;
76125;SDS011;65174;48.138;21.002;2023-07-08T05:01:13;2.38;;;1.80;;
76125;SDS011;65174;48.138;21.002;2023-07-08T05:04:16;2.57;;;1.50;;
76125;SDS011;65174;48.138;21.002;2023-07-08T05:07:20;1.63;;;1.50;;
76125;SDS011;65174;48.138;21.002;2023-07-08T05:10:22;2.30;;;1.50;;
76125;SDS011;65174;48.138;21.002;2023-07-08T05:13:25;1.52;;;1.40;;
76125;SDS011;65174;48.138;21.002;2023-07-08T05:16:27;2.72;;;1.45;;
76125;SDS011;65174;48.138;21.002;2023-07-08T05:19:29;3.23;;;1.47;;
76125;SDS011;65174;48.138;21.002;2023-07-08T05:22:31;1.60;;;1.50;;
76125;SDS011;65174;48.138;21.002;2023-07-08T05:25:34;2.28;;;1.60;;
76125;SDS011;65174;48.138;21.002;2023-07-08T05:28:37;2.22;;;1.73;;
76125;SDS011;65174;48.138;21.002;2023-07-08T05:31:39;2.65;;;1.58;;
76125;SDS011;65174;48.138;21.002;2023-07-08T05:34:48;2.57;;;1.37;;
76125;SDS011;65174;48.138;21.002;2023-07-08T05:37:51;1.85;;;1.65;;
76125;SDS011;65174;48.138;21.002;2023-07-08T05:40:54;1.95;;;1.75;;
76125;SDS011;65174;48.138;21.002;2023-07-08T05:43:57;2.33;;;1.40;;
76125;SDS011;65174;48.138;21.002;2023-07-08T05:46:59;1.85;;;1.55;;
76125;SDS011;65174;48.138;21.002;2023-07-08T05:50:02;3.00;;;1.70;;
76125;SDS011;65174;48.138;21.002;2023-07-08T05:53:08;2.25;;;1.45;;
76125;SDS011;65174;48.138;21.002;2023-07-08T05:56:11;3.17;;;2.05;;
76125;SDS011;65174;48.138;21.002;2023-07-08T05:59:13;3.15;;;1.80;;
76125;SDS011;65174;48.138;21.002;2023-07-08T06:02:16;2.63;;;1.83;;
76125;SDS011;65174;48.138;21.002;2023-07-08T06:05:18;2.50;;;1.97;;
76125;SDS011;65174;48.138;21.002;2023-07-08T06:11:50;3.35;;;1.63;;
76125;SDS011;65174;48.138;21.002;2023-07-08T06:14:52;2.60;;;2.10;;
76125;SDS011;65174;48.138;21.002;2023-07-08T06:17:54;2.67;;;1.80;;
76125;SDS011;65174;48.138;21.002;2023-07-08T06:20:57;1.93;;;1.70;;
76125;SDS011;65174;48.138;21.002;2023-07-08T06:24:00;4.07;;;2.58;;
76125;SDS011;65174;48.138;21.002;2023-07-08T06:27:02;2.15;;;1.90;;
76125;SDS011;65174;48.138;21.002;2023-07-08T06:30:04;2.10;;;1.70;;
76125;SDS011;65174;48.138;21.002;2023-07-08T06:33:06;2.72;;;1.58;;
76125;SDS011;65174;48.138;21.002;2023-07-08T06:36:08;3.90;;;1.80;;
76125;SDS011;65174;48.138;21.002;2023-07-08T06:39:10;2.83;;;1.80;;
76125;SDS011;65174;48.138;21.002;2023-07-08T06:42:13;2.22;;;1.90;;
76125;SDS011;65174;48.138;21.002;2023-07-08T06:45:22;2.45;;;1.83;;
76125;SDS011;65174;48.138;21.002;2023-07-08T06:48:24;2.70;;;1.60;;
76125;SDS011;65174;48.138;21.002;2023-07-08T06:51:27;3.63;;;1.97;;
76125;SDS011;65174;48.138;21.002;2023-07-08T06:54:29;2.15;;;1.42;;
76125;SDS011;65174;48.138;21.002;2023-07-08T06:57:32;2.13;;;1.70;;
76125;SDS011;65174;48.138;21.002;2023-07-08T07:00:34;2.60;;;1.42;;
76125;SDS011;65174;48.138;21.002;2023-07-08T07:03:36;1.77;;;1.48;;
76125;SDS011;65174;48.138;21.002;2023-07-08T07:06:39;2.90;;;1.80;;
76125;SDS011;65174;48.138;21.002;2023-07-08T07:09:41;3.15;;;1.77;;
76125;SDS011;65174;48.138;21.002;2023-07-08T07:12:43;5.75;;;1.70;;
76125;SDS011;65174;48.138;21.002;2023-07-08T07:15:45;2.35;;;1.67;;
76125;SDS011;65174;48.138;21.002;2023-07-08T07:18:53;2.58;;;2.05;;
76125;SDS011;65174;48.138;21.002;2023-07-08T07:21:55;2.70;;;2.00;;
76125;SDS011;65174;48.138;21.002;2023-07-08T07:24:57;2.78;;;2.00;;
76125;SDS011;65174;48.138;21.002;2023-07-08T07:28:00;2.75;;;1.90;;
76125;SDS011;65174;48.138;21.002;2023-07-08T07:31:02;2.38;;;1.63;;
76125;SDS011;65174;48.138;21.002;2023-07-08T07:34:27;3.60;;;2.17;;
76125;SDS011;65174;48.138;21.002;2023-07-08T07:41:30;1.85;;;1.52;;
76125;SDS011;65174;48.138;21.002;2023-07-08T07:44:32;2.28;;;1.50;;
76125;SDS011;65174;48.138;21.002;2023-07-08T07:47:34;2.25;;;1.60;;
76125;SDS011;65174;48.138;21.002;2023-07-08T07:50:37;2.85;;;1.70;;
76125;SDS011;65174;48.138;21.002;2023-07-08T07:53:39;3.10;;;1.70;;
76125;SDS011;65174;48.138;21.002;2023-07-08T07:56:41;1.90;;;1.40;;
76125;SDS011;65174;48.138;21.002;2023-07-08T07:59:44;3.58;;;1.17;;
76125;SDS011;65174;48.138;21.002;2023-07-08T08:02:47;1.98;;;1.50;;
76125;SDS011;65174;48.138;21.002;2023-07-08T08:05:49;1.30;;;1.20;;
76125;SDS011;65174;48.138;21.002;2023-07-08T08:08:51;1.47;;;1.23;;
76125;SDS011;65174;48.138;21.002;2023-07-08T08:11:53;1.80;;;1.13;;
76125;SDS011;65174;48.138;21.002;2023-07-08T08:14:56;1.70;;;1.20;;
76125;SDS011;65174;48.138;21.002;2023-07-08T08:17:58;2.03;;;1.55;;
76125;SDS011;65174;48.138;21.002;2023-07-08T08:21:00;5.15;;;1.38;;
76125;SDS011;65174;48.138;21.002;2023-07-08T08:24:02;2.27;;;1.50;;
76125;SDS011;65174;48.138;21.002;2023-07-08T08:27:05;2.35;;;1.42;;
76125;SDS011;65174;48.138;21.002;2023-07-08T08:30:07;1.98;;;1.33;;
76125;SDS011;65174;48.138;21.002;2023-07-08T08:33:09;2.90;;;1.50;;
76125;SDS011;65174;48.138;21.002;2023-07-08T08:36:11;1.70;;;1.08;;
76125;SDS011;65174;48.138;21.002;2023-07-08T08:39:13;2.10;;;1.20;;
76125;SDS011;65174;48.138;21.002;2023-07-08T08:42:34;2.03;;;1.17;;
76125;SDS011;65174;48.138;21.002;2023-07-08T08:45:56;1.80;;;1.35;;
76125;SDS011;65174;48.138;21.002;2023-07-08T08:49:22;1.45;;;1.10;;
76125;SDS011;65174;48.138;21.002;2023-07-08T08:52:26;1.90;;;1.30;;
76125;SDS011;65174;48.138;21.002;2023-07-08T08:55:28;1.47;;;1.00;;
76125;SDS011;65174;48.138;21.002;2023-07-08T09:01:48;1.80;;;1.58;;
76125;SDS011;65174;48.138;21.002;2023-07-08T09:04:51;1.52;;;1.20;;
76125;SDS011;65174;48.138;21.002;2023-07-08T09:11:36;1.10;;;1.00;;
76125;SDS011;65174;48.138;21.002;2023-07-08T09:14:54;1.55;;;1.13;;
76125;SDS011;65174;48.138;21.002;2023-07-08T09:17:57;1.48;;;1.30;;
76125;SDS011;65174;48.138;21.002;2023-07-08T09:21:19;1.60;;;1.27;;
76125;SDS011;65174;48.138;21.002;2023-07-08T09:24:31;1.80;;;1.17;;
76125;SDS011;65174;48.138;21.002;2023-07-08T09:27:33;1.80;;;1.20;;
76125;SDS011;65174;48.138;21.002;2023-07-08T09:30:35;2.20;;;1.45;;
76125;SDS011;65174;48.138;21.002;2023-07-08T09:33:38;1.55;;;1.25;;
76125;SDS011;65174;48.138;21.002;2023-07-08T09:36:42;2.17;;;1.30;;
76125;SDS011;65174;48.138;21.002;2023-07-08T09:39:47;1.42;;;1.23;;
76125;SDS011;65174;48.138;21.002;2023-07-08T09:42:51;1.20;;;1.10;;
76125;SDS011;65174;48.138;21.002;2023-07-08T09:45:59;1.83;;;1.20;;
76125;SDS011;65174;48.138;21.002;2023-07-08T09:49:09;1.98;;;1.20;;
76125;SDS011;65174;48.138;21.002;2023-07-08T09:52:16;1.77;;;1.27;;
76125;SDS011;65174;48.138;21.002;2023-07-08T09:55:19;1.30;;;0.90;;
76125;SDS011;65174;48.138;21.002;2023-07-08T09:58:23;2.07;;;1.33;;
76125;SDS011;65174;48.138;21.002;2023-07-08T10:01:27;1.70;;;1.10;;
76125;SDS011;65174;48.138;21.002;2023-07-08T10:04:30;1.48;;;1.15;;
76125;SDS011;65174;48.138;21.002;2023-07-08T10:07:33;2.00;;;1.20;;
76125;SDS011;65174;48.138;21.002;2023-07-08T10:10:36;1.25;;;1.05;;
76125;SDS011;65174;48.138;21.002;2023-07-08T10:13:41;1.30;;;0.90;;
76125;SDS011;65174;48.138;21.002;2023-07-08T10:16:46;1.10;;;1.00;;
76125;SDS011;65174;48.138;21.002;2023-07-08T10:19:48;2.30;;;1.40;;
76125;SDS011;65174;48.138;21.002;2023-07-08T10:22:54;1.40;;;1.00;;
76125;SDS011;65174;48.138;21.002;2023-07-08T10:39:26;1.75;;;1.23;;
76125;SDS011;65174;48.138;21.002;2023-07-08T10:49:34;2.47;;;1.20;;
76125;SDS011;65174;48.138;21.002;2023-07-08T10:56:07;2.00;;;1.30;;
76125;SDS011;65174;48.138;21.002;2023-07-08T11:02:59;1.38;;;1.15;;
76125;SDS011;65174;48.138;21.002;2023-07-08T11:06:10;1.30;;;0.87;;
76125;SDS011;65174;48.138;21.002;2023-07-08T11:09:35;1.48;;;1.10;;
76125;SDS011;65174;48.138;21.002;2023-07-08T11:12:56;2.65;;;1.40;;
76125;SDS011;65174;48.138;21.002;2023-07-08T11:19:36;2.70;;;0.98;;
76125;SDS011;65174;48.138;21.002;2023-07-08T11:22:52;1.03;;;0.90;;
76125;SDS011;65174;48.138;21.002;2023-07-08T11:26:47;1.00;;;0.90;;
76125;SDS011;65174;48.138;21.002;2023-07-08T11:30:32;1.70;;;1.15;;
76125;SDS011;65174;48.138;21.002;2023-07-08T11:33:15;1.80;;;1.27;;
76125;SDS011;65174;48.138;21.002;2023-07-08T11:36:20;1.20;;;0.95;;
76125;SDS011;65174;48.138;21.002;2023-07-08T11:39:32;1.27;;;1.03;;
76125;SDS011;65174;48.138;21.002;2023-07-08T11:42:40;1.20;;;1.10;;
76125;SDS011;65174;48.138;21.002;2023-07-08T11:45:56;2.83;;;1.52;;
76125;SDS011;65174;48.138;21.002;2023-07-08T11:49:04;2.72;;;1.00;;
76125;SDS011;65174;48.138;21.002;2023-07-08T11:52:13;1.75;;;1.23;;
76125;SDS011;65174;48.138;21.002;2023-07-08T11:55:23;1.57;;;1.10;;
76125;SDS011;65174;48.138;21.002;2023-07-08T12:07:59;1.38;;;1.13;;
76125;SDS011;65174;48.138;21.002;2023-07-08T12:11:07;2.80;;;0.97;;
76125;SDS011;65174;48.138;21.002;2023-07-08T12:14:12;3.00;;;1.90;;
76125;SDS011;65174;48.138;21.002;2023-07-08T12:17:16;3.38;;;1.33;;
76125;SDS011;65174;48.138;21.002;2023-07-08T12:20:21;1.40;;;1.05;;
76125;SDS011;65174;48.138;21.002;2023-07-08T12:23:26;1.50;;;1.40;;
76125;SDS011;65174;48.138;21.002;2023-07-08T12:26:29;1.67;;;1.20;;
76125;SDS011;65174;48.138;21.002;2023-07-08T12:29:31;2.03;;;1.38;;
76125;SDS011;65174;48.138;21.002;2023-07-08T12:32:34;1.10;;;1.00;;
76125;SDS011;65174;48.138;21.002;2023-07-08T12:35:36;3.10;;;1.13;;
76125;SDS011;65174;48.138;21.002;2023-07-08T12:38:41;1.90;;;1.13;;
76125;SDS011;65174;48.138;21.002;2023-07-08T12:41:48;1.40;;;1.10;;
76125;SDS011;65174;48.138;21.002;2023-07-08T12:44:51;1.30;;;1.13;;
76125;SDS011;65174;48.138;21.002;2023-07-08T12:47:53;1.80;;;1.20;;
76125;SDS011;65174;48.138;21.002;2023-07-08T12:50:57;1.85;;;1.17;;
76125;SDS011;65174;48.138;21.002;2023-07-08T12:54:00;1.30;;;1.20;;
76125;SDS011;65174;48.138;21.002;2023-07-08T12:57:02;2.63;;;1.30;;
76125;SDS011;65174;48.138;21.002;2023-07-08T13:00:05;2.97;;;1.10;;
76125;SDS011;65174;48.138;21.002;2023-07-08T13:03:41;1.63;;;1.20;;
76125;SDS011;65174;48.138;21.002;2023-07-08T13:06:45;1.65;;;1.13;;
76125;SDS011;65174;48.138;21.002;2023-07-08T13:09:49;1.95;;;1.20;;
76125;SDS011;65174;48.138;21.002;2023-07-08T13:12:54;1.63;;;1.40;;
76125;SDS011;65174;48.138;21.002;2023-07-08T13:15:59;1.35;;;1.23;;
76125;SDS011;65174;48.138;21.002;2023-07-08T13:19:03;1.58;;;1.30;;
76125;SDS011;65174;48.138;21.002;2023-07-08T13:22:05;1.55;;;1.30;;
76125;SDS011;65174;48.138;21.002;2023-07-08T13:25:14;1.58;;;1.48;;
76125;SDS011;65174;48.138;21.002;2023-07-08T13:28:23;1.83;;;1.13;;
76125;SDS011;65174;48.138;21.002;2023-07-08T13:31:33;1.60;;;1.45;;
76125;SDS011;65174;48.138;21.002;2023-07-08T13:34:36;1.83;;;1.42;;
76125;SDS011;65174;48.138;21.002;2023-07-08T13:37:40;2.08;;;1.27;;
76125;SDS011;65174;48.138;21.002;2023-07-08T13:40:49;1.42;;;1.33;;
76125;SDS011;65174;48.138;21.002;2023-07-08T13:43:55;1.50;;;1.10;;
76125;SDS011;65174;48.138;21.002;2023-07-08T13:46:58;1.30;;;1.10;;
76125;SDS011;65174;48.138;21.002;2023-07-08T13:50:07;1.95;;;1.75;;
76125;SDS011;65174;48.138;21.002;2023-07-08T13:53:33;1.58;;;1.30;;
76125;SDS011;65174;48.138;21.002;2023-07-08T13:56:41;1.88;;;1.10;;
76125;SDS011;65174;48.138;21.002;2023-07-08T13:59:43;2.03;;;1.30;;
76125;SDS011;65174;48.138;21.002;2023-07-08T14:02:46;1.85;;;1.35;;
76125;SDS011;65174;48.138;21.002;2023-07-08T14:05:48;1.40;;;1.30;;
76125;SDS011;65174;48.138;21.002;2023-07-08T14:08:53;1.48;;;1.10;;
76125;SDS011;65174;48.138;21.002;2023-07-08T14:11:57;1.75;;;1.10;;
76125;SDS011;65174;48.138;21.002;2023-07-08T14:14:59;1.10;;;1.00;;
76125;SDS011;65174;48.138;21.002;2023-07-08T14:18:02;1.50;;;1.23;;
76125;SDS011;65174;48.138;21.002;2023-07-08T14:21:04;1.65;;;1.10;;
76125;SDS011;65174;48.138;21.002;2023-07-08T14:24:12;2.60;;;1.10;;
76125;SDS011;65174;48.138;21.002;2023-07-08T14:27:16;1.73;;;1.40;;
76125;SDS011;65174;48.138;21.002;2023-07-08T14:30:19;1.43;;;1.10;;
76125;SDS011;65174;48.138;21.002;2023-07-08T14:33:23;1.33;;;1.10;;
76125;SDS011;65174;48.138;21.002;2023-07-08T14:36:25;1.90;;;1.80;;
76125;SDS011;65174;48.138;21.002;2023-07-08T14:39:27;2.67;;;1.27;;
76125;SDS011;65174;48.138;21.002;2023-07-08T14:42:32;1.27;;;1.02;;
76125;SDS011;65174;48.138;21.002;2023-07-08T14:45:41;1.40;;;1.20;;
76125;SDS011;65174;48.138;21.002;2023-07-08T14:48:48;1.92;;;1.60;;
76125;SDS011;65174;48.138;21.002;2023-07-08T14:51:50;4.57;;;1.00;;
76125;SDS011;65174;48.138;21.002;2023-07-08T14:54:53;1.90;;;1.20;;
76125;SDS011;65174;48.138;21.002;2023-07-08T14:57:55;1.55;;;1.10;;
76125;SDS011;65174;48.138;21.002;2023-07-08T15:00:59;2.27;;;1.30;;
76125;SDS011;65174;48.138;21.002;2023-07-08T15:04:09;1.73;;;1.02;;
76125;SDS011;65174;48.138;21.002;2023-07-08T15:07:12;1.30;;;1.20;;
76125;SDS011;65174;48.138;21.002;2023-07-08T15:10:14;1.40;;;1.17;;
76125;SDS011;65174;48.138;21.002;2023-07-08T15:13:17;2.10;;;1.58;;
76125;SDS011;65174;48.138;21.002;2023-07-08T15:16:21;1.50;;;1.17;;
76125;SDS011;65174;48.138;21.002;2023-07-08T15:19:23;1.70;;;1.10;;
76125;SDS011;65174;48.138;21.002;2023-07-08T15:22:25;2.80;;;1.45;;
76125;SDS011;65174;48.138;21.002;2023-07-08T15:25:27;1.65;;;1.02;;
76125;SDS011;65174;48.138;21.002;2023-07-08T15:28:44;1.35;;;1.25;;
76125;SDS011;65174;48.138;21.002;2023-07-08T15:31:52;1.13;;;1.00;;
76125;SDS011;65174;48.138;21.002;2023-07-08T15:34:54;1.10;;;1.00;;
76125;SDS011;65174;48.138;21.002;2023-07-08T15:37:57;1.60;;;1.42;;
76125;SDS011;65174;48.138;21.002;2023-07-08T15:41:00;1.55;;;1.05;;
76125;SDS011;65174;48.138;21.002;2023-07-08T15:44:07;2.13;;;1.85;;
76125;SDS011;65174;48.138;21.002;2023-07-08T15:47:11;1.30;;;1.20;;
76125;SDS011;65174;48.138;21.002;2023-07-08T15:50:16;2.70;;;1.10;;
76125;SDS011;65174;48.138;21.002;2023-07-08T15:53:20;2.60;;;1.35;;
76125;SDS011;65174;48.138;21.002;2023-07-08T15:56:22;1.80;;;1.00;;
76125;SDS011;65174;48.138;21.002;2023-07-08T15:59:27;1.98;;;1.30;;
76125;SDS011;65174;48.138;21.002;2023-07-08T16:02:31;1.47;;;1.00;;
76125;SDS011;65174;48.138;21.002;2023-07-08T16:05:33;1.35;;;1.00;;
76125;SDS011;65174;48.138;21.002;2023-07-08T16:08:38;2.20;;;1.40;;
76125;SDS011;65174;48.138;21.002;2023-07-08T16:11:40;1.40;;;1.00;;
76125;SDS011;65174;48.138;21.002;2023-07-08T16:14:42;1.10;;;1.00;;
76125;SDS011;65174;48.138;21.002;2023-07-08T16:17:44;1.63;;;1.17;;
76125;SDS011;65174;48.138;21.002;2023-07-08T16:20:47;2.00;;;1.30;;
76125;SDS011;65174;48.138;21.002;2023-07-08T16:23:50;1.35;;;1.15;;
76125;SDS011;65174;48.138;21.002;2023-07-08T16:26:52;1.65;;;1.23;;
76125;SDS011;65174;48.138;21.002;2023-07-08T16:29:54;2.80;;;1.30;;
76125;SDS011;65174;48.138;21.002;2023-07-08T16:32:56;2.77;;;1.10;;
76125;SDS011;65174;48.138;21.002;2023-07-08T16:35:58;1.70;;;1.10;;
76125;SDS011;65174;48.138;21.002;2023-07-08T16:39:00;1.42;;;1.20;;
76125;SDS011;65174;48.138;21.002;2023-07-08T16:42:07;2.47;;;0.90;;
76125;SDS011;65174;48.138;21.002;2023-07-08T16:45:17;2.05;;;1.60;;
76125;SDS011;65174;48.138;21.002;2023-07-08T16:48:20;4.87;;;2.47;;
76125;SDS011;65174;48.138;21.002;2023-07-08T16:51:24;2.75;;;1.90;;
76125;SDS011;65174;48.138;21.002;2023-07-08T16:54:28;3.47;;;1.50;;
76125;SDS011;65174;48.138;21.002;2023-07-08T16:57:30;5.38;;;2.92;;
76125;SDS011;65174;48.138;21.002;2023-07-08T17:00:32;5.43;;;3.42;;
76125;SDS011;65174;48.138;21.002;2023-07-08T17:03:34;1.50;;;1.40;;
76125;SDS011;65174;48.138;21.002;2023-07-08T17:06:36;1.95;;;1.10;;
76125;SDS011;65174;48.138;21.002;2023-07-08T17:09:38;1.10;;;1.00;;
76125;SDS011;65174;48.138;21.002;2023-07-08T17:12:41;1.23;;;1.10;;
76125;SDS011;65174;48.138;21.002;2023-07-08T17:19:39;1.37;;;1.10;;
76125;SDS011;65174;48.138;21.002;2023-07-08T17:22:41;1.67;;;0.93;;
76125;SDS011;65174;48.138;21.002;2023-07-08T17:25:43;1.20;;;0.90;;
76125;SDS011;65174;48.138;21.002;2023-07-08T17:28:46;1.90;;;1.08;;
76125;SDS011;65174;48.138;21.002;2023-07-08T17:31:50;1.75;;;1.10;;
76125;SDS011;65174;48.138;21.002;2023-07-08T17:34:55;1.27;;;1.10;;
76125;SDS011;65174;48.138;21.002;2023-07-08T17:37:57;1.40;;;0.88;;
76125;SDS011;65174;48.138;21.002;2023-07-08T17:40:59;2.45;;;0.90;;
76125;SDS011;65174;48.138;21.002;2023-07-08T17:44:02;1.70;;;1.13;;
76125;SDS011;65174;48.138;21.002;2023-07-08T17:47:07;1.02;;;0.93;;
76125;SDS011;65174;48.138;21.002;2023-07-08T17:54:03;1.23;;;0.90;;
76125;SDS011;65174;48.138;21.002;2023-07-08T17:57:05;1.50;;;1.27;;
76125;SDS011;65174;48.138;21.002;2023-07-08T18:00:15;1.92;;;1.10;;
76125;SDS011;65174;48.138;21.002;2023-07-08T18:03:25;2.05;;;1.20;;
76125;SDS011;65174;48.138;21.002;2023-07-08T18:06:27;1.50;;;1.30;;
76125;SDS011;65174;48.138;21.002;2023-07-08T18:09:29;1.38;;;1.15;;
76125;SDS011;65174;48.138;21.002;2023-07-08T18:12:31;1.00;;;0.90;;
76125;SDS011;65174;48.138;21.002;2023-07-08T18:15:37;2.38;;;1.20;;
76125;SDS011;65174;48.138;21.002;2023-07-08T18:18:41;1.58;;;1.30;;
76125;SDS011;65174;48.138;21.002;2023-07-08T18:21:43;3.13;;;1.30;;
76125;SDS011;65174;48.138;21.002;2023-07-08T18:24:47;2.15;;;1.60;;
76125;SDS011;65174;48.138;21.002;2023-07-08T18:27:49;1.85;;;1.45;;
76125;SDS011;65174;48.138;21.002;2023-07-08T18:30:51;6.65;;;1.98;;
76125;SDS011;65174;48.138;21.002;2023-07-08T18:33:54;7.57;;;2.00;;
76125;SDS011;65174;48.138;21.002;2023-07-08T18:36:56;3.97;;;2.47;;
76125;SDS011;65174;48.138;21.002;2023-07-08T18:43:58;3.65;;;1.80;;
76125;SDS011;65174;48.138;21.002;2023-07-08T18:47:00;1.50;;;1.20;;
76125;SDS011;65174;48.138;21.002;2023-07-08T18:50:03;1.92;;;1.58;;
76125;SDS011;65174;48.138;21.002;2023-07-08T18:53:12;3.93;;;1.40;;
76125;SDS011;65174;48.138;21.002;2023-07-08T18:56:16;1.73;;;1.20;;
76125;SDS011;65174;48.138;21.002;2023-07-08T18:59:19;2.60;;;1.52;;
76125;SDS011;65174;48.138;21.002;2023-07-08T19:02:29;1.55;;;1.30;;
76125;SDS011;65174;48.138;21.002;2023-07-08T19:05:31;1.55;;;1.13;;
76125;SDS011;65174;48.138;21.002;2023-07-08T19:08:33;1.83;;;1.10;;
76125;SDS011;65174;48.138;21.002;2023-07-08T19:11:35;2.35;;;1.48;;
76125;SDS011;65174;48.138;21.002;2023-07-08T19:14:39;1.60;;;1.33;;
76125;SDS011;65174;48.138;21.002;2023-07-08T19:17:41;2.22;;;1.40;;
76125;SDS011;65174;48.138;21.002;2023-07-08T19:20:44;1.58;;;1.20;;
76125;SDS011;65174;48.138;21.002;2023-07-08T19:23:49;4.23;;;1.30;;
76125;SDS011;65174;48.138;21.002;2023-07-08T19:26:53;2.47;;;1.23;;
76125;SDS011;65174;48.138;21.002;2023-07-08T19:29:55;2.00;;;1.30;;
76125;SDS011;65174;48.138;21.002;2023-07-08T19:32:57;2.67;;;1.10;;
76125;SDS011;65174;48.138;21.002;2023-07-08T19:35:59;1.30;;;1.20;;